• Join FlightAware (Why Join?)
  • Login
  • US Flag 
07:02AM EDT


 

Airport Tracker/Info


-or-


 

Live Flight TrackerFlight Track Log ✈ WAV760 ✈ 01-Sep-2013 ✈ PAFA / FAI - PATA / TAL

Flight Track Log - Related Links

Times and Time Zones

All times are in EDT time to prevent confusion due to time zone crossing. See the WAV760 flight status page for this flight to view local times or setup timezone preferences in your user account.

Time Position Orientation Groundspeed Altitude Reporting Facility
EDT Latitude Longitude Course Direction KTS MPH feet Rate Location/Type
09:18PM 64.8770 -148.5414 301° West  Level FlightAware Approximate
09:18PM 64.8833 -148.2500 282° West 130 150 5,700  Level Anchorage Center
09:19PM 64.8894 -148.6390 281° West  Level FlightAware Approximate
09:19PM 64.8833 -148.3333 270° West 130 150 6,300  Level Anchorage Center
09:20PM 64.8978 -148.7401 281° West  Level FlightAware Approximate
09:20PM 64.9000 -148.4333 291° West 130 150 7,000  Level Anchorage Center
09:21PM 64.9069 -148.8409 282° West  Level FlightAware Approximate
09:21PM 64.9000 -148.5167 270° West 140 161 7,600  Level Anchorage Center
09:22PM 64.9161 -148.9417 282° West  Level FlightAware Approximate
09:22PM 64.9167 -148.6000 295° West 140 161 8,000  Level Anchorage Center
09:23PM 64.9252 -149.0426 282° West  Level FlightAware Approximate
09:23PM 64.9167 -148.7000 270° West 160 184 8,000  Level Anchorage Center
09:24PM 64.9333 -148.8000 292° West 160 184 8,000  Level Anchorage Center
09:25PM 64.9500 -148.9000 292° West 150 173 8,000  Level Anchorage Center
09:26PM 64.9500 -149.0000 270° West 160 184 8,000  Level Anchorage Center
09:27PM 64.9500 -149.1000 270° West 180 207 8,000  Level Anchorage Center
09:28PM 64.9667 -149.2000 292° West 160 184 8,000  Level Anchorage Center
09:29PM 64.9667 -149.3000 270° West 170 196 8,000  Level Anchorage Center
09:30PM 64.9833 -149.4000 292° West 160 184 8,000  Level Anchorage Center
09:31PM 64.9833 -149.5000 270° West 150 173 8,000  Level Anchorage Center
09:32PM 65.0000 -149.6167 289° West 160 184 8,000  Level Anchorage Center
09:33PM 65.0000 -149.7167 270° West 150 173 8,000  Level Anchorage Center
09:34PM 65.0167 -149.8167 292° West 160 184 8,000  Level Anchorage Center
09:35PM 65.0167 -149.9333 270° West 170 196 8,000  Level Anchorage Center
09:36PM 65.0333 -150.0333 292° West 170 196 8,000  Level Anchorage Center
09:37PM 65.0333 -150.1333 270° West 160 184 8,000  Level Anchorage Center
09:38PM 65.0500 -150.2500 289° West 170 196 8,000  Level Anchorage Center
09:39PM 65.0500 -150.3500 270° West 170 196 8,000  Level Anchorage Center
09:40PM 65.0667 -150.4667 289° West 170 196 8,000 -360 Level Anchorage Center
09:41PM 65.0667 -150.5833 270° West 190 219 7,300 -780 Descending Anchorage Center
09:42PM 65.0833 -150.7167 287° West 200 230 6,500 -600 Descending Anchorage Center
09:43PM 65.0833 -150.8333 270° West 180 207 6,100 -240 Descending Anchorage Center
09:44PM 65.1000 -150.9500 289° West 170 196 6,100  Level Anchorage Center
09:45PM 65.1000 -151.0667 270° West 180 207 6,100  Level Anchorage Center
09:46PM 65.1167 -151.1667 292° West 180 207 6,100  Level Anchorage Center
09:47PM 65.1167 -151.2833 270° West 180 207 6,100 -120 Level Anchorage Center
09:48PM 65.1000 -151.4167 254° West 170 196 5,900 -420 Descending Anchorage Center
09:49PM 65.1000 -151.5167 270° West 200 230 5,300 -840 Descending Anchorage Center
09:50PM 65.1000 -151.6500 270° West 200 230 4,300 -660 Descending Anchorage Center
09:51PM 65.1000 -151.7833 270° West 190 219 4,000 -120 Descending Anchorage Center
09:52PM 65.0833 -151.9000 251° West 180 207 4,100  Climbing Anchorage Center
09:53PM 65.1000 -152.0167 289° West 170 196 4,100  Level Anchorage Center
09:56PM 65.1603 -152.0907 283° West  Level Estimated
10:03PM 65.1667 -152.1000 283° West  Level FlightAware Approximate
10:04PM 65.1744 -152.1081 283° West  Level Estimated
10:05PM 65.1744 -152.1081 283° West  Level Estimated
10:06PM 65.1744 -152.1081 283° West  Level Estimated
10:07PM 65.1744 -152.1081 283° West  Level Estimated
10:08PM 65.1744 -152.1081 283° West  Level Estimated